createdAt,value
2022-12-12T00:01:58.583Z,94134.03
2022-12-12T00:05:15.377Z,94133.47
2022-12-12T00:08:25.178Z,94136.19
2022-12-12T00:11:33.601Z,94138.53
2022-12-12T00:14:41.864Z,94142.81
2022-12-12T00:17:50.127Z,94144.16
2022-12-12T00:20:59.805Z,94134.59
2022-12-12T00:24:10.228Z,94139.78
2022-12-12T00:27:18.536Z,94136.63
2022-12-12T00:30:27.271Z,94144.94
2022-12-12T00:33:35.792Z,94142.59
2022-12-12T00:36:44.022Z,94140.66
2022-12-12T00:39:54.017Z,94152.00
2022-12-12T00:43:02.800Z,94146.34
2022-12-12T00:46:15.266Z,94148.13
2022-12-12T00:49:23.604Z,94148.59
2022-12-12T00:52:31.891Z,94154.03
2022-12-12T00:55:41.863Z,94151.63
2022-12-12T00:58:50.981Z,94162.13
2022-12-12T01:01:59.366Z,94152.63
2022-12-12T01:05:08.905Z,94158.41
2022-12-12T01:08:17.204Z,94161.94
2022-12-12T01:11:27.699Z,94158.31
2022-12-12T01:14:36.013Z,94155.47
2022-12-12T01:17:44.461Z,94155.88
2022-12-12T01:20:52.969Z,94156.72
2022-12-12T01:24:01.494Z,94156.59
2022-12-12T01:27:11.078Z,94169.81
2022-12-12T01:30:23.226Z,94169.53
2022-12-12T01:33:31.604Z,94166.06
2022-12-12T01:36:40.097Z,94169.22
2022-12-12T01:39:48.498Z,94160.09
2022-12-12T01:42:59.551Z,94174.09
2022-12-12T01:46:43.158Z,94173.28
2022-12-12T01:49:55.981Z,94183.97
2022-12-12T01:53:04.381Z,94181.25
2022-12-12T01:56:20.491Z,94179.34
2022-12-12T01:59:31.057Z,94186.44
2022-12-12T02:02:42.098Z,94187.41
2022-12-12T02:05:55.983Z,94185.38
2022-12-12T02:09:09.609Z,94183.69
2022-12-12T02:12:18.058Z,94186.28
2022-12-12T02:15:39.394Z,94188.63
2022-12-12T02:19:00.788Z,94196.59
2022-12-12T02:22:19.705Z,94194.28
2022-12-12T02:26:17.803Z,94197.25
2022-12-12T02:30:22.177Z,94194.03
2022-12-12T02:33:45.786Z,94190.94
2022-12-12T02:37:07.244Z,94190.88
2022-12-12T02:40:23.919Z,94189.84
2022-12-12T02:43:43.068Z,94192.41
2022-12-12T02:47:05.161Z,94185.25
2022-12-12T02:50:20.145Z,94188.34
2022-12-12T02:53:28.471Z,94192.25
2022-12-12T02:56:54.197Z,94192.00
2022-12-12T03:00:09.086Z,94193.66
2022-12-12T03:03:55.154Z,94187.53
2022-12-12T03:07:34.176Z,94194.84
2022-12-12T03:10:57.837Z,94190.34
2022-12-12T03:14:17.779Z,94198.31
2022-12-12T03:17:37.099Z,94190.44
2022-12-12T03:20:56.229Z,94197.88
2022-12-12T03:24:12.260Z,94198.38
2022-12-12T03:27:30.715Z,94194.16
2022-12-12T03:30:46.688Z,94192.44
2022-12-12T03:34:02.713Z,94203.38
2022-12-12T03:37:17.527Z,94192.59
2022-12-12T03:40:34.501Z,94186.25
2022-12-12T03:43:52.513Z,94199.66
2022-12-12T03:47:08.419Z,94202.78
2022-12-12T03:50:22.104Z,94197.75
2022-12-12T03:53:39.609Z,94200.50
2022-12-12T03:56:57.152Z,94194.13
2022-12-12T04:00:10.384Z,94185.91
2022-12-12T04:03:31.097Z,94194.25
2022-12-12T04:06:44.701Z,94189.91
2022-12-12T04:10:11.131Z,94196.00
2022-12-12T04:13:33.855Z,94198.78
2022-12-12T04:16:47.415Z,94202.22
2022-12-12T04:20:18.950Z,94200.94
2022-12-12T04:23:38.229Z,94205.88
2022-12-12T04:26:53.204Z,94208.13
2022-12-12T04:30:09.328Z,94212.78
2022-12-12T04:33:24.170Z,94209.34
2022-12-12T04:36:35.636Z,94210.50
2022-12-12T04:39:47.448Z,94210.06
2022-12-12T04:43:04.072Z,94211.47
2022-12-12T04:46:17.911Z,94213.22
2022-12-12T04:49:30.067Z,94214.16
2022-12-12T04:52:42.410Z,94214.31
2022-12-12T04:55:57.067Z,94218.66
2022-12-12T04:59:07.716Z,94220.56
2022-12-12T05:02:30.788Z,94230.69
2022-12-12T05:05:48.762Z,94229.28
2022-12-12T05:08:59.709Z,94228.25
2022-12-12T05:12:08.291Z,94239.25
2022-12-12T05:15:21.224Z,94241.97
2022-12-12T05:18:31.923Z,94254.06
2022-12-12T05:21:40.334Z,94249.31
2022-12-12T05:24:48.710Z,94255.63
2022-12-12T05:27:57.195Z,94253.69
2022-12-12T05:31:06.782Z,94252.53
2022-12-12T05:34:16.954Z,94251.09
2022-12-12T05:37:25.155Z,94253.00
2022-12-12T05:40:33.419Z,94253.00
2022-12-12T05:43:44.953Z,94255.22
2022-12-12T05:46:53.219Z,94262.84
2022-12-12T05:50:02.879Z,94261.91
2022-12-12T05:53:11.375Z,94260.59
2022-12-12T05:56:19.735Z,94259.50
2022-12-12T05:59:28.233Z,94268.13
2022-12-12T06:02:36.534Z,94273.19
2022-12-12T06:05:46.414Z,94273.56
2022-12-12T06:08:55.643Z,94271.03
2022-12-12T06:12:05.154Z,94276.00
2022-12-12T06:15:13.631Z,94275.19
2022-12-12T06:18:22.009Z,94276.00
2022-12-12T06:21:31.651Z,94279.41
2022-12-12T06:24:39.976Z,94270.81
2022-12-12T06:27:48.180Z,94273.41
2022-12-12T06:30:56.777Z,94276.22
2022-12-12T06:34:05.112Z,94269.38
2022-12-12T06:37:17.325Z,94271.84
2022-12-12T06:40:25.864Z,94274.34
2022-12-12T06:43:34.136Z,94279.47
2022-12-12T06:46:42.841Z,94286.41
2022-12-12T06:49:51.129Z,94289.84
2022-12-12T06:53:00.763Z,94286.31
2022-12-12T06:56:10.910Z,94297.38
2022-12-12T06:59:19.199Z,94310.75
2022-12-12T07:02:30.032Z,94309.53
2022-12-12T07:05:38.713Z,94310.81
2022-12-12T07:08:48.792Z,94321.59
2022-12-12T07:11:57.096Z,94317.44
2022-12-12T07:15:06.070Z,94317.31
2022-12-12T07:18:15.646Z,94316.72
2022-12-12T07:21:23.924Z,94330.66
2022-12-12T07:24:33.529Z,94319.81
2022-12-12T07:27:41.891Z,94319.81
2022-12-12T07:30:51.358Z,94321.34
2022-12-12T07:33:59.866Z,94315.81
2022-12-12T07:37:08.183Z,94327.41
2022-12-12T07:40:18.850Z,94325.75
2022-12-12T07:43:27.039Z,94326.34
2022-12-12T07:46:35.469Z,94328.34
2022-12-12T07:49:43.747Z,94332.84
2022-12-12T07:52:52.247Z,94326.97
2022-12-12T07:56:01.883Z,94343.00
2022-12-12T07:59:10.147Z,94339.91
2022-12-12T08:02:18.452Z,94351.59
2022-12-12T08:05:26.784Z,94353.31
2022-12-12T08:08:35.562Z,94349.13
2022-12-12T08:11:46.736Z,94354.88
2022-12-12T08:14:55.376Z,94350.03
2022-12-12T08:18:03.734Z,94365.59
2022-12-12T08:21:18.707Z,94360.66
2022-12-12T08:24:31.640Z,94372.91
2022-12-12T08:27:41.333Z,94375.50
2022-12-12T08:30:52.979Z,94374.22
2022-12-12T08:34:02.600Z,94379.38
2022-12-12T08:37:11.218Z,94378.69
2022-12-12T08:40:20.901Z,94377.72
2022-12-12T08:43:30.536Z,94379.97
2022-12-12T08:46:39.511Z,94380.88
2022-12-12T08:49:47.828Z,94378.06
2022-12-12T08:52:57.728Z,94380.53
2022-12-12T08:56:06.895Z,94384.44
2022-12-12T08:59:16.474Z,94386.53
2022-12-12T09:02:24.871Z,94397.13
2022-12-12T09:05:33.190Z,94403.22
2022-12-12T09:08:42.843Z,94399.75
2022-12-12T09:11:51.084Z,94397.25
2022-12-12T09:15:00.633Z,94402.75
2022-12-12T09:18:08.908Z,94404.84
2022-12-12T09:21:17.577Z,94406.44
2022-12-12T09:24:28.899Z,94403.28
2022-12-12T09:27:37.858Z,94401.06
2022-12-12T09:30:48.639Z,94406.31
2022-12-12T09:33:56.880Z,94405.50
2022-12-12T09:37:06.155Z,94405.50
2022-12-12T09:40:22.566Z,94412.66
2022-12-12T09:43:35.912Z,94405.38
2022-12-12T09:46:52.247Z,94398.50
2022-12-12T09:50:12.979Z,94402.38
2022-12-12T09:53:23.886Z,94395.78
2022-12-12T09:56:41.311Z,94402.50
2022-12-12T09:59:59.185Z,94409.63
2022-12-12T10:03:27.864Z,94397.97
2022-12-12T10:06:48.307Z,94396.75
2022-12-12T10:10:11.216Z,94398.13
2022-12-12T10:13:24.860Z,94391.69
2022-12-12T10:16:34.893Z,94384.72
2022-12-12T10:19:52.620Z,94388.84
2022-12-12T10:23:08.446Z,94392.94
2022-12-12T10:26:19.989Z,94382.00
2022-12-12T10:29:28.811Z,94386.91
2022-12-12T10:32:52.053Z,94385.00
2022-12-12T10:36:11.820Z,94388.28
2022-12-12T10:39:32.044Z,94384.16
2022-12-12T10:42:48.793Z,94383.09
2022-12-12T10:46:24.982Z,94380.22
2022-12-12T10:49:35.280Z,94374.00
2022-12-12T10:52:45.276Z,94373.22
2022-12-12T10:55:59.844Z,94377.88
2022-12-12T10:59:23.443Z,94370.19
2022-12-12T11:02:39.589Z,94382.50
2022-12-12T11:05:49.636Z,94380.16
2022-12-12T11:09:08.311Z,94381.66
2022-12-12T11:12:18.223Z,94381.38
2022-12-12T11:15:38.002Z,94378.19
2022-12-12T11:19:02.194Z,94382.16
2022-12-12T11:22:14.770Z,94376.03
2022-12-12T11:25:30.050Z,94379.78
2022-12-12T11:28:42.002Z,94376.59
2022-12-12T11:31:50.504Z,94367.66
2022-12-12T11:35:03.086Z,94369.59
2022-12-12T11:38:21.588Z,94365.91
2022-12-12T11:41:59.339Z,94364.53
2022-12-12T11:45:24.370Z,94363.44
2022-12-12T11:48:42.578Z,94358.66
2022-12-12T11:51:50.911Z,94363.81
2022-12-12T11:55:00.930Z,94363.56
2022-12-12T11:58:22.192Z,94350.69
2022-12-12T12:01:47.081Z,94358.53
2022-12-12T12:05:15.347Z,94352.31
2022-12-12T12:08:51.708Z,94348.34
2022-12-12T12:12:11.316Z,94345.69
2022-12-12T12:15:43.025Z,94350.88
2022-12-12T12:19:08.078Z,94342.09
2022-12-12T12:22:33.457Z,94350.03
2022-12-12T12:25:55.214Z,94343.06
2022-12-12T12:29:22.292Z,94341.78
2022-12-12T12:32:51.311Z,94343.34
2022-12-12T12:36:20.892Z,94345.59
2022-12-12T12:39:53.709Z,94345.38
2022-12-12T12:43:35.530Z,94347.31
2022-12-12T12:46:58.107Z,94351.09
2022-12-12T12:50:20.750Z,94344.78
2022-12-12T12:53:38.463Z,94352.84
2022-12-12T12:56:57.334Z,94354.91
2022-12-12T13:00:15.665Z,94349.03
2022-12-12T13:03:32.349Z,94351.91
2022-12-12T13:06:49.328Z,94343.66
2022-12-12T13:10:08.046Z,94341.06
2022-12-12T13:13:25.863Z,94347.41
2022-12-12T13:16:35.128Z,94346.84
2022-12-12T13:19:48.297Z,94340.25
2022-12-12T13:23:19.121Z,94335.84
2022-12-12T13:26:40.271Z,94346.00
2022-12-12T13:29:56.390Z,94347.91
2022-12-12T13:33:34.477Z,94354.66
2022-12-12T13:36:48.098Z,94350.97
2022-12-12T13:40:06.027Z,94353.03
2022-12-12T13:43:32.710Z,94360.84
2022-12-12T13:46:42.567Z,94360.03
2022-12-12T13:49:54.653Z,94360.84
2022-12-12T13:53:21.299Z,94363.88
2022-12-12T13:56:43.874Z,94363.00
2022-12-12T14:00:28.857Z,94355.09
2022-12-12T14:03:38.689Z,94355.28
2022-12-12T14:06:47.238Z,94361.56
2022-12-12T14:09:58.410Z,94369.50
2022-12-12T14:13:40.189Z,94355.22
2022-12-12T14:16:57.963Z,94366.00
2022-12-12T14:20:08.182Z,94366.59
2022-12-12T14:23:30.027Z,94360.69
2022-12-12T14:26:51.638Z,94353.69
2022-12-12T14:30:02.606Z,94365.66
2022-12-12T14:33:46.695Z,94363.56
2022-12-12T14:37:34.834Z,94368.88
2022-12-12T14:40:49.280Z,94379.00
2022-12-12T14:44:36.853Z,94379.38
2022-12-12T14:47:31.703Z,94376.03
2022-12-12T14:50:41.452Z,94385.84
2022-12-12T14:53:52.542Z,94379.22
2022-12-12T14:57:01.592Z,94375.31
2022-12-12T15:00:19.237Z,94373.59
2022-12-12T15:03:36.144Z,94366.00
2022-12-12T15:06:46.224Z,94363.16
2022-12-12T15:09:54.947Z,94353.81
2022-12-12T15:13:03.273Z,94356.56
2022-12-12T15:16:11.607Z,94355.91
2022-12-12T15:19:29.148Z,94360.34
2022-12-12T15:22:49.432Z,94362.66
2022-12-12T15:25:57.944Z,94366.25
2022-12-12T15:29:06.340Z,94369.31
2022-12-12T15:32:20.190Z,94368.41
2022-12-12T15:35:30.161Z,94364.03
2022-12-12T15:38:38.498Z,94366.78
2022-12-12T15:41:47.875Z,94364.78
2022-12-12T15:44:57.231Z,94360.66
2022-12-12T15:48:08.011Z,94359.22
2022-12-12T15:51:25.053Z,94362.28
2022-12-12T15:54:33.777Z,94377.50
2022-12-12T15:57:49.093Z,94378.09
2022-12-12T16:01:21.321Z,94378.81
2022-12-12T16:04:30.238Z,94376.81
2022-12-12T16:07:40.775Z,94375.94
2022-12-12T16:10:55.294Z,94378.31
2022-12-12T16:14:04.192Z,94375.59
2022-12-12T16:17:18.444Z,94380.50
2022-12-12T16:20:30.436Z,94378.13
2022-12-12T16:23:43.115Z,94380.78
2022-12-12T16:26:52.206Z,94386.44
2022-12-12T16:30:00.335Z,94389.13
2022-12-12T16:33:13.193Z,94400.09
2022-12-12T16:36:21.421Z,94393.88
2022-12-12T16:39:31.362Z,94378.78
2022-12-12T16:42:39.670Z,94381.25
2022-12-12T16:45:50.961Z,94379.31
2022-12-12T16:49:04.748Z,94371.41
2022-12-12T16:52:15.898Z,94385.69
2022-12-12T16:55:26.781Z,94386.16
2022-12-12T16:58:35.517Z,94394.44
2022-12-12T17:01:44.053Z,94396.19
2022-12-12T17:04:53.049Z,94400.53
2022-12-12T17:08:01.556Z,94398.69
2022-12-12T17:11:13.183Z,94400.16
2022-12-12T17:14:24.996Z,94394.72
2022-12-12T17:17:33.341Z,94400.97
2022-12-12T17:20:43.056Z,94404.69
2022-12-12T17:23:51.973Z,94400.97
2022-12-12T17:27:01.930Z,94395.09
2022-12-12T17:30:13.485Z,94405.41
2022-12-12T17:33:22.238Z,94407.38
2022-12-12T17:36:31.457Z,94405.22
2022-12-12T17:39:40.272Z,94403.28
2022-12-12T17:42:50.314Z,94407.41
2022-12-12T17:46:00.938Z,94413.94
2022-12-12T17:49:09.352Z,94408.88
2022-12-12T17:52:17.747Z,94398.13
2022-12-12T17:55:55.098Z,94397.91
2022-12-12T17:58:55.884Z,94400.59
2022-12-12T18:02:05.917Z,94397.19
2022-12-12T18:05:19.614Z,94395.66
2022-12-12T18:08:28.015Z,94390.47
2022-12-12T18:11:38.623Z,94385.53
2022-12-12T18:14:48.416Z,94391.31
2022-12-12T18:17:57.517Z,94392.38
2022-12-12T18:21:08.718Z,94405.59
2022-12-12T18:24:18.331Z,94393.06
2022-12-12T18:27:26.675Z,94399.81
2022-12-12T18:30:37.006Z,94401.66
2022-12-12T18:33:45.350Z,94412.19
2022-12-12T18:36:54.055Z,94403.91
2022-12-12T18:40:02.378Z,94401.47
2022-12-12T18:43:10.580Z,94404.31
2022-12-12T18:46:24.265Z,94402.06
2022-12-12T18:49:33.935Z,94401.31
2022-12-12T18:52:43.499Z,94406.66
2022-12-12T18:55:52.056Z,94407.91
2022-12-12T18:59:03.105Z,94414.06
2022-12-12T19:02:14.723Z,94414.59
2022-12-12T19:05:23.507Z,94414.59
2022-12-12T19:08:32.108Z,94408.84
2022-12-12T19:11:40.764Z,94411.91
2022-12-12T19:18:19.465Z,94407.16
2022-12-12T19:21:28.863Z,94403.66
2022-12-12T19:24:37.064Z,94403.88
2022-12-12T19:27:46.791Z,94409.41
2022-12-12T19:30:55.050Z,94403.59
2022-12-12T19:34:06.975Z,94399.75
2022-12-12T19:37:15.263Z,94396.41
2022-12-12T19:40:23.526Z,94398.44
2022-12-12T19:43:32.118Z,94395.44
2022-12-12T19:46:43.069Z,94396.50
2022-12-12T19:49:52.790Z,94401.72
2022-12-12T19:53:01.287Z,94394.13
2022-12-12T19:56:13.861Z,94394.59
2022-12-12T19:59:22.174Z,94395.41
2022-12-12T20:02:30.577Z,94392.00
2022-12-12T20:05:42.264Z,94384.06
2022-12-12T20:08:51.163Z,94383.47
2022-12-12T20:12:01.598Z,94380.25
2022-12-12T20:15:10.966Z,94385.75
2022-12-12T20:18:19.215Z,94374.28
2022-12-12T20:21:59.863Z,94380.09
2022-12-12T20:24:58.843Z,94377.25
2022-12-12T20:28:08.030Z,94367.50
2022-12-12T20:31:24.181Z,94372.00
2022-12-12T20:34:33.127Z,94370.81
2022-12-12T20:37:43.370Z,94376.91
2022-12-12T20:40:51.835Z,94380.56
2022-12-12T20:44:01.836Z,94377.34
2022-12-12T20:47:17.908Z,94377.81
2022-12-12T20:50:26.514Z,94379.66
2022-12-12T20:53:37.259Z,94371.78
2022-12-12T20:56:46.514Z,94372.41
2022-12-12T20:59:55.391Z,94370.97
2022-12-12T21:03:04.368Z,94377.50
2022-12-12T21:06:13.857Z,94370.97
2022-12-12T21:09:26.467Z,94370.88
2022-12-12T21:12:35.044Z,94369.69
2022-12-12T21:15:43.968Z,94368.19
2022-12-12T21:18:55.285Z,94365.13
2022-12-12T21:22:03.909Z,94377.13
2022-12-12T21:25:16.867Z,94367.72
2022-12-12T21:28:25.615Z,94370.31
2022-12-12T21:31:38.241Z,94382.56
2022-12-12T21:34:46.528Z,94379.72
2022-12-12T21:37:54.853Z,94362.19
2022-12-12T21:41:08.323Z,94362.47
2022-12-12T21:44:16.703Z,94359.72
2022-12-12T21:47:24.894Z,94360.19
2022-12-12T21:50:33.383Z,94351.72
2022-12-12T21:53:42.854Z,94357.69
2022-12-12T21:56:52.931Z,94359.19
2022-12-12T22:00:01.266Z,94357.91
2022-12-12T22:03:10.408Z,94353.28
2022-12-12T22:06:22.504Z,94353.47
2022-12-12T22:09:30.938Z,94358.91
2022-12-12T22:12:40.815Z,94366.16
2022-12-12T22:15:58.872Z,94356.50
2022-12-12T22:19:11.096Z,94352.38
2022-12-12T22:22:19.460Z,94360.25
2022-12-12T22:25:29.431Z,94358.69
2022-12-12T22:28:39.214Z,94359.34
2022-12-12T22:31:49.878Z,94358.28
2022-12-12T22:34:59.226Z,94352.88
2022-12-12T22:38:07.530Z,94351.41
2022-12-12T22:41:15.733Z,94341.88
2022-12-12T22:44:26.923Z,94345.53
2022-12-12T22:47:35.153Z,94341.81
2022-12-12T22:50:43.511Z,94338.25
2022-12-12T22:53:52.583Z,94342.06
2022-12-12T22:57:00.779Z,94340.72
2022-12-12T23:00:12.353Z,94337.03
2022-12-12T23:03:20.548Z,94332.78
2022-12-12T23:06:31.653Z,94329.47
2022-12-12T23:09:52.228Z,94335.34
2022-12-12T23:13:00.463Z,94337.03
2022-12-12T23:16:13.948Z,94326.66
2022-12-12T23:19:26.205Z,94326.44
2022-12-12T23:22:34.661Z,94324.47
2022-12-12T23:25:42.877Z,94324.78
2022-12-12T23:28:51.583Z,94319.03
2022-12-12T23:32:03.036Z,94322.97
2022-12-12T23:35:11.455Z,94320.31
2022-12-12T23:38:20.361Z,94308.44
2022-12-12T23:41:29.628Z,94309.72
2022-12-12T23:44:38.641Z,94301.66
2022-12-12T23:47:49.043Z,94305.06
2022-12-12T23:50:57.659Z,94297.09
2022-12-12T23:54:11.503Z,94304.19
2022-12-12T23:57:19.703Z,94295.28
